Time;durP1;ratioP1;P1;durP2;ratioP2;P2;SDS_P1;SDS_P2;PMS_P1;PMS_P2;Temp;Humidity;BMP_temperature;BMP_pressure;BME280_temperature;BME280_humidity;BME280_pressure;Samples;Min_cycle;Max_cycle;Signal;HPM_P1;HPM_P2
2021/05/17 00:02:02;;;;;;;;;;;;;;;19.49;100.00;98551.63;1573709;91;20149;-75
2021/05/17 00:04:33;;;;;;;;;;;;;;;19.48;100.00;98548.06;1573380;91;20549;-75
2021/05/17 00:06:59;;;;;;;;;;;;;;;19.48;100.00;98547.25;1573470;91;20173;-75
2021/05/17 00:09:27;;;;;;;;;;;;;;;19.47;100.00;98535.44;1587779;90;20195;-75
2021/05/17 00:11:54;;;;;;;;;;;;;;;19.47;100.00;98532.70;1640853;85;20231;-75
2021/05/17 00:14:22;;;;;;;;;;;;;;;19.48;100.00;98548.62;1706736;82;20160;-76
2021/05/17 00:16:51;;;;;;;;;;;;;;;19.46;100.00;98546.66;1742864;82;20544;-75
2021/05/17 00:19:17;;;;;;;;;;;;;;;19.43;100.00;98551.33;1744209;81;20167;-75
2021/05/17 00:21:44;;;;;;;;;;;;;;;19.39;100.00;98557.04;1756664;81;20165;-74
2021/05/17 00:24:12;;;;;;;;;;;;;;;19.39;100.00;98565.27;1776067;81;20173;-75
2021/05/17 00:26:39;;;;;;;;;;;;;;;19.40;100.00;98571.85;1773399;81;20510;-73
2021/05/17 00:29:06;;;;;;;;;;;;;;;19.43;100.00;98575.44;1773281;81;20184;-74
2021/05/17 00:31:33;;;;;;;;;;;;;;;19.46;100.00;98583.14;1773444;81;20149;-75
2021/05/17 00:34:00;;;;;;;;;;;;;;;19.48;100.00;98582.88;1773627;81;20141;-74
2021/05/17 00:36:27;;;;;;;;;;;;;;;19.50;100.00;98588.92;1773729;81;20157;-74
2021/05/17 00:38:54;;;;;;;;;;;;;;;19.51;100.00;98596.03;1774000;81;20180;-75
2021/05/17 00:41:21;;;;;;;;;;;;;;;19.52;100.00;98596.33;1773958;81;20177;-74
2021/05/17 00:43:47;;;;;;;;;;;;;;;19.52;100.00;98596.33;1773705;81;20525;-74
2021/05/17 00:46:14;;;;;;;;;;;;;;;19.54;100.00;98589.48;1773867;81;20176;-75
2021/05/17 00:48:43;;;;;;;;;;;;;;;19.53;100.00;98593.88;1773912;81;20153;-75
2021/05/17 00:51:12;;;;;;;;;;;;;;;19.50;100.00;98598.52;1773695;81;20514;-77
2021/05/17 00:53:40;;;;;;;;;;;;;;;19.47;100.00;98601.78;1773805;81;20180;-76
2021/05/17 00:56:08;;;;;;;;;;;;;;;19.45;100.00;98616.30;1773499;81;20145;-76
2021/05/17 00:58:36;;;;;;;;;;;;;;;19.43;100.00;98623.41;1773585;81;20465;-74
2021/05/17 01:01:05;;;;;;;;;;;;;;;19.42;100.00;98636.82;1773323;81;20164;-75
2021/05/17 01:03:32;;;;;;;;;;;;;;;19.41;100.00;98635.73;1773136;81;20474;-75
2021/05/17 01:06:04;;;;;;;;;;;;;;;19.39;100.00;98657.08;1768402;81;20165;-73
2021/05/17 01:08:47;;;;;;;;;;;;;;;19.35;100.00;98656.25;1773292;81;20162;-76
2021/05/17 01:11:14;;;;;;;;;;;;;;;19.32;100.00;98684.73;1773286;81;20168;-74
2021/05/17 01:13:41;;;;;;;;;;;;;;;19.22;100.00;98655.31;1773412;81;20470;-75
2021/05/17 01:16:08;;;;;;;;;;;;;;;19.11;100.00;98674.13;1741450;81;20133;-75
2021/05/17 01:18:35;;;;;;;;;;;;;;;18.96;100.00;98686.60;1773165;81;20572;-77
2021/05/17 01:21:04;;;;;;;;;;;;;;;18.84;100.00;98677.72;1773526;81;20173;-76
2021/05/17 01:23:43;;;;;;;;;;;;;;;18.75;100.00;98710.70;1742773;82;20189;-74
2021/05/17 01:26:04;;;;;;;;;;;;;;;18.66;100.00;98695.81;1740497;82;20501;-77
2021/05/17 01:28:32;;;;;;;;;;;;;;;18.54;100.00;98693.23;1742432;82;20165;-75
2021/05/17 01:31:04;;;;;;;;;;;;;;;18.37;100.00;98672.78;1721936;82;20165;-74
2021/05/17 01:33:35;;;;;;;;;;;;;;;18.19;100.00;98648.76;1704481;82;20150;-75
2021/05/17 01:36:02;;;;;;;;;;;;;;;17.96;100.00;98638.89;1704674;84;20165;-75
2021/05/17 01:38:29;;;;;;;;;;;;;;;17.73;100.00;98579.78;1704539;84;20194;-79
2021/05/17 01:40:57;;;;;;;;;;;;;;;17.55;100.00;98547.30;1704697;84;20237;-76
2021/05/17 01:43:24;;;;;;;;;;;;;;;17.38;100.00;98565.09;1704590;84;20145;-76
2021/05/17 01:45:50;;;;;;;;;;;;;;;17.23;100.00;98603.95;1704702;84;20222;-74
2021/05/17 01:48:21;;;;;;;;;;;;;;;17.14;100.00;98598.59;1704664;84;20210;-78
2021/05/17 01:50:48;;;;;;;;;;;;;;;17.04;100.00;98613.75;1676085;86;20160;-75
2021/05/17 01:53:14;;;;;;;;;;;;;;;16.97;100.00;98621.27;1676397;86;20508;-74
2021/05/17 01:55:42;;;;;;;;;;;;;;;16.93;100.00;98631.05;1653832;86;20524;-76
2021/05/17 01:58:20;;;;;;;;;;;;;;;16.89;100.00;98613.48;1676486;86;20200;-76
2021/05/17 02:00:48;;;;;;;;;;;;;;;16.86;100.00;98590.80;1674661;86;20557;-77
2021/05/17 02:03:16;;;;;;;;;;;;;;;16.86;100.00;98579.88;1676577;86;20213;-76
2021/05/17 02:05:46;;;;;;;;;;;;;;;16.85;100.00;98570.84;1676905;86;20172;-77
2021/05/17 02:08:12;;;;;;;;;;;;;;;16.83;100.00;98553.89;1676648;86;20480;-77
2021/05/17 02:10:40;;;;;;;;;;;;;;;16.81;100.00;98553.28;1676506;86;20330;-76
2021/05/17 02:13:08;;;;;;;;;;;;;;;16.78;100.00;98526.47;1676531;86;20152;-75
2021/05/17 02:15:36;;;;;;;;;;;;;;;16.75;100.00;98522.90;1676454;86;20192;-77
2021/05/17 02:18:05;;;;;;;;;;;;;;;16.69;100.00;98519.78;1676213;86;20172;-77
2021/05/17 02:20:34;;;;;;;;;;;;;;;16.64;100.00;98503.32;1703748;84;20174;-76
2021/05/17 02:23:01;;;;;;;;;;;;;;;16.59;100.00;98489.08;1724545;83;20504;-76
2021/05/17 02:25:30;;;;;;;;;;;;;;;16.57;100.00;98496.66;1732294;83;20171;-75
2021/05/17 02:27:58;;;;;;;;;;;;;;;16.53;100.00;98510.52;1732117;83;20163;-78
2021/05/17 02:30:25;;;;;;;;;;;;;;;16.54;100.00;98525.82;1714867;83;20221;-75
2021/05/17 02:32:53;;;;;;;;;;;;;;;16.55;100.00;98532.09;1703105;84;20483;-75
2021/05/17 02:35:24;;;;;;;;;;;;;;;16.54;100.00;98534.01;1699462;84;20166;-74
2021/05/17 02:37:51;;;;;;;;;;;;;;;16.56;100.00;98532.41;1703169;84;20150;-76
2021/05/17 02:40:18;;;;;;;;;;;;;;;16.56;100.00;98531.86;1703255;84;20181;-75
2021/05/17 02:42:47;;;;;;;;;;;;;;;16.59;100.00;98545.02;1679545;84;20214;-76
2021/05/17 02:45:15;;;;;;;;;;;;;;;16.63;100.00;98539.89;1626658;88;20175;-76
2021/05/17 02:47:41;;;;;;;;;;;;;;;16.66;100.00;98547.05;1647535;86;20181;-74
2021/05/17 02:50:11;;;;;;;;;;;;;;;16.69;100.00;98560.17;1641060;86;20176;-76
2021/05/17 02:52:40;;;;;;;;;;;;;;;16.75;100.00;98572.54;1663275;86;20196;-76
2021/05/17 02:55:10;;;;;;;;;;;;;;;16.79;100.00;98576.45;1663304;86;20246;-76
2021/05/17 02:57:45;;;;;;;;;;;;;;;16.83;100.00;98588.00;1663288;86;20222;-75
2021/05/17 03:00:22;;;;;;;;;;;;;;;16.89;100.00;98593.01;1663356;86;20177;-77
2021/05/17 03:03:05;;;;;;;;;;;;;;;16.94;100.00;98576.71;1640110;88;20187;-75
2021/05/17 03:05:43;;;;;;;;;;;;;;;17.01;100.00;98558.26;1610548;89;20526;-76
2021/05/17 03:08:14;;;;;;;;;;;;;;;17.09;100.00;98544.74;1610690;89;20185;-76
2021/05/17 03:10:44;;;;;;;;;;;;;;;17.16;100.00;98548.67;1610620;89;20173;-78
2021/05/17 03:13:17;;;;;;;;;;;;;;;17.19;100.00;98529.87;1610641;89;20181;-76
2021/05/17 03:15:45;;;;;;;;;;;;;;;17.26;100.00;98510.04;1610801;89;20153;-76
2021/05/17 03:18:12;;;;;;;;;;;;;;;17.35;100.00;98532.29;1622133;88;20166;-77
2021/05/17 03:20:39;;;;;;;;;;;;;;;17.49;100.00;98572.89;1609379;88;20206;-76
2021/05/17 03:23:13;;;;;;;;;;;;;;;17.60;100.00;98615.67;1619056;88;20200;-75
2021/05/17 03:25:46;;;;;;;;;;;;;;;17.70;100.00;98651.91;1624334;88;20481;-76
2021/05/17 03:28:13;;;;;;;;;;;;;;;17.79;100.00;98667.61;1624292;88;20172;-76
2021/05/17 03:30:39;;;;;;;;;;;;;;;17.86;100.00;98641.48;1624384;88;20184;-75
2021/05/17 03:33:06;;;;;;;;;;;;;;;17.94;100.00;98601.41;1624602;88;20509;-76
2021/05/17 03:35:32;;;;;;;;;;;;;;;18.05;100.00;98585.13;1624812;88;20325;-75
2021/05/17 03:37:59;;;;;;;;;;;;;;;18.16;100.00;98559.55;1625056;88;20165;-75
2021/05/17 03:40:25;;;;;;;;;;;;;;;18.31;100.00;98535.09;1624586;88;20196;-76
2021/05/17 03:42:52;;;;;;;;;;;;;;;18.46;100.00;98528.92;1623836;88;20168;-76
2021/05/17 03:45:20;;;;;;;;;;;;;;;18.56;100.00;98534.50;1623637;88;20533;-76
2021/05/17 03:47:46;;;;;;;;;;;;;;;18.60;100.00;98532.88;1623775;88;20261;-75
2021/05/17 03:50:13;;;;;;;;;;;;;;;18.65;100.00;98528.01;1623805;88;20289;-75
2021/05/17 03:52:41;;;;;;;;;;;;;;;18.69;100.00;98485.88;1623932;88;20176;-76
2021/05/17 03:55:07;;;;;;;;;;;;;;;18.71;100.00;98485.88;1623896;88;20201;-76
2021/05/17 03:57:35;;;;;;;;;;;;;;;18.80;100.00;98531.41;1624952;88;20145;-75
2021/05/17 04:00:04;;;;;;;;;;;;;;;18.84;100.00;98564.59;1642598;87;20179;-75
2021/05/17 04:02:33;;;;;;;;;;;;;;;18.87;100.00;98601.05;1711253;84;20142;-76
2021/05/17 04:05:16;;;;;;;;;;;;;;;18.84;100.00;98611.14;1713881;84;20181;-75
2021/05/17 04:15:46;;;;;;;;;;;;;;;18.08;100.00;98544.94;1712681;84;20226;-72
2021/05/17 04:18:13;;;;;;;;;;;;;;;17.82;100.00;98544.63;1752374;81;20172;-72
2021/05/17 04:20:40;;;;;;;;;;;;;;;17.68;100.00;98557.03;1742164;82;20199;-73
2021/05/17 04:23:07;;;;;;;;;;;;;;;17.57;100.00;98554.70;1754562;81;20513;-73
2021/05/17 04:25:33;;;;;;;;;;;;;;;17.48;100.00;98528.35;1764613;81;20201;-72
2021/05/17 04:28:00;;;;;;;;;;;;;;;17.41;100.00;98512.14;1764714;81;20190;-73
2021/05/17 04:30:26;;;;;;;;;;;;;;;17.41;100.00;98508.59;1764709;81;20181;-72
2021/05/17 04:32:53;;;;;;;;;;;;;;;17.43;100.00;98492.22;1764368;81;20498;-73
2021/05/17 04:35:19;;;;;;;;;;;;;;;17.43;100.00;98475.01;1764603;81;20180;-73
2021/05/17 04:37:46;;;;;;;;;;;;;;;17.46;100.00;98458.93;1764459;81;20153;-75
2021/05/17 04:40:13;;;;;;;;;;;;;;;17.50;100.00;98442.84;1764535;81;20462;-75
2021/05/17 04:42:42;;;;;;;;;;;;;;;17.55;100.00;98427.88;1764383;81;20513;-73
2021/05/17 04:45:09;;;;;;;;;;;;;;;17.65;100.00;98402.04;1764394;81;20180;-73
2021/05/17 04:47:35;;;;;;;;;;;;;;;17.79;100.00;98392.86;1764510;81;20149;-73
2021/05/17 04:50:03;;;;;;;;;;;;;;;17.96;100.00;98396.89;1764666;81;20204;-73
2021/05/17 04:52:30;;;;;;;;;;;;;;;18.17;100.00;98392.42;1764471;81;20169;-73
2021/05/17 04:54:57;;;;;;;;;;;;;;;18.36;100.00;98383.80;1764561;81;20165;-74
2021/05/17 04:57:24;;;;;;;;;;;;;;;18.51;100.00;98380.37;1764571;81;20482;-74
2021/05/17 04:59:51;;;;;;;;;;;;;;;18.60;100.00;98372.75;1764488;81;20137;-74
2021/05/17 05:02:17;;;;;;;;;;;;;;;18.70;100.00;98363.79;1764453;81;20561;-73
2021/05/17 05:04:44;;;;;;;;;;;;;;;18.81;100.00;98376.17;1764490;81;20157;-75
2021/05/17 05:07:10;;;;;;;;;;;;;;;18.91;100.00;98387.19;1764826;81;20145;-74
2021/05/17 05:09:39;;;;;;;;;;;;;;;18.99;100.00;98401.76;1764637;81;20160;-74
2021/05/17 05:12:05;;;;;;;;;;;;;;;19.06;100.00;98404.27;1764521;81;20512;-77
2021/05/17 05:14:32;;;;;;;;;;;;;;;19.18;100.00;98414.46;1764815;81;20161;-76
2021/05/17 05:16:59;;;;;;;;;;;;;;;19.41;100.00;98430.18;1764702;81;20189;-73
2021/05/17 05:19:26;;;;;;;;;;;;;;;19.67;100.00;98462.08;1764912;81;20200;-73
2021/05/17 05:21:53;;;;;;;;;;;;;;;19.94;100.00;98498.64;1764839;81;20145;-73
2021/05/17 05:24:20;;;;;;;;;;;;;;;20.15;100.00;98540.14;1768369;80;20550;-78
2021/05/17 05:29:35;;;;;;;;;;;;;;;20.51;100.00;98559.42;1772206;80;20184;-77
2021/05/17 05:32:11;;;;;;;;;;;;;;;20.69;100.00;98571.02;1771453;81;20185;-83
2021/05/17 05:34:30;;;;;;;;;;;;;;;20.89;100.00;98572.38;1761068;81;20161;-79
2021/05/17 05:37:01;;;;;;;;;;;;;;;21.16;100.00;98565.77;1765352;81;20525;-80
2021/05/17 05:39:29;;;;;;;;;;;;;;;21.43;100.00;98561.34;1766107;81;20145;-85
2021/05/17 05:41:56;;;;;;;;;;;;;;;21.57;100.00;98558.88;1766241;81;20164;-84
2021/05/17 05:44:23;;;;;;;;;;;;;;;21.66;100.00;98555.00;1766130;81;20157;-81
2021/05/17 05:46:52;;;;;;;;;;;;;;;21.67;100.00;98555.25;1765674;81;20204;-85
2021/05/17 05:49:22;;;;;;;;;;;;;;;21.65;100.00;98557.47;1764825;81;20157;-77
2021/05/17 05:51:49;;;;;;;;;;;;;;;21.65;100.00;98563.78;1778512;81;20477;-83
2021/05/17 05:54:18;;;;;;;;;;;;;;;21.59;100.00;98551.16;1780665;81;20467;-81
2021/05/17 05:56:45;;;;;;;;;;;;;;;21.41;100.00;98553.37;1780237;81;20561;-79
2021/05/17 05:59:12;;;;;;;;;;;;;;;21.24;100.00;98554.23;1780211;81;20224;-80
2021/05/17 06:01:39;;;;;;;;;;;;;;;21.19;100.00;98562.48;1780775;81;20160;-80
2021/05/17 06:04:07;;;;;;;;;;;;;;;21.28;100.00;98563.55;1781517;81;20176;-78
2021/05/17 06:06:40;;;;;;;;;;;;;;;21.51;100.00;98581.41;1781202;81;20097;-82
2021/05/17 06:09:09;;;;;;;;;;;;;;;21.66;100.00;98568.19;1780651;81;20152;-82
2021/05/17 06:11:38;;;;;;;;;;;;;;;21.73;100.00;98568.72;1781167;81;20210;-78
2021/05/17 06:14:06;;;;;;;;;;;;;;;21.82;100.00;98572.27;1775500;81;20198;-81
2021/05/17 06:16:35;;;;;;;;;;;;;;;21.91;100.00;98586.53;1769957;80;20493;-81
2021/05/17 06:19:05;;;;;;;;;;;;;;;22.06;100.00;98587.57;1778430;81;20188;-84
2021/05/17 06:21:32;;;;;;;;;;;;;;;22.28;100.00;98570.16;1743039;81;20170;-80
2021/05/17 06:23:59;;;;;;;;;;;;;;;22.50;100.00;98575.23;1775981;79;20159;-79
2021/05/17 06:26:27;;;;;;;;;;;;;;;22.74;100.00;98575.92;1782120;80;20596;-77
2021/05/17 06:28:55;;;;;;;;;;;;;;;22.83;100.00;98563.73;1775017;81;20189;-83
2021/05/17 06:31:24;;;;;;;;;;;;;;;22.91;100.00;98574.13;1774131;81;20193;-80
2021/05/17 06:33:52;;;;;;;;;;;;;;;23.00;100.00;98576.55;1782034;80;20176;-75
2021/05/17 06:36:18;;;;;;;;;;;;;;;23.24;100.00;98588.22;1771496;81;20136;-74
2021/05/17 06:38:45;;;;;;;;;;;;;;;23.35;100.00;98585.63;1780394;80;20499;-76
2021/05/17 06:41:12;;;;;;;;;;;;;;;23.24;100.00;98589.03;1766618;80;20149;-77
2021/05/17 06:43:40;;;;;;;;;;;;;;;23.22;100.00;98586.31;1784724;80;20141;-76
2021/05/17 06:46:08;;;;;;;;;;;;;;;23.39;100.00;98591.37;1753903;81;20173;-74
2021/05/17 06:48:42;;;;;;;;;;;;;;;23.57;100.00;98596.70;1770151;81;20493;-75
2021/05/17 06:51:05;;;;;;;;;;;;;;;23.62;100.00;98594.74;1767407;80;20156;-74
2021/05/17 07:04:57;;;;;;;;;;;;;;;23.45;100.00;98603.45;1736796;81;20201;-73
2021/05/17 07:07:42;;;;;;;;;;;;;;;;;;;;;
2021/05/17 07:12:39;;;;;;;;;;;;;;;23.10;100.00;98609.55;1682300;85;20192;-76
2021/05/17 07:15:06;;;;;;;;;;;;;;;22.91;100.00;98614.09;1681068;84;20184;-75
2021/05/17 07:17:33;;;;;;;;;;;;;;;22.69;100.00;98619.48;1681452;85;20216;-75
2021/05/17 07:20:00;;;;;;;;;;;;;;;22.59;100.00;98614.02;1683651;84;20179;-75
2021/05/17 07:25:13;;;;;;;;;;;;;;;22.41;100.00;98622.39;1698171;84;20227;-74
2021/05/17 07:27:40;;;;;;;;;;;;;;;22.42;100.00;98617.17;1682107;85;20187;-72
2021/05/17 07:30:08;;;;;;;;;;;;;;;22.42;100.00;98612.22;1681980;85;20249;-74
2021/05/17 07:32:35;;;;;;;;;;;;;;;22.31;100.00;98620.53;1698228;84;20573;-74
2021/05/17 07:35:02;;;;;;;;;;;;;;;22.25;100.00;98620.80;1694744;85;20240;-73
2021/05/17 07:37:29;;;;;;;;;;;;;;;22.18;100.00;98619.16;1697670;84;20202;-74
2021/05/17 07:39:55;;;;;;;;;;;;;;;22.11;100.00;98621.95;1704912;83;20194;-71
2021/05/17 07:42:22;;;;;;;;;;;;;;;22.03;100.00;98622.00;1739662;82;20163;-74
2021/05/17 07:44:50;;;;;;;;;;;;;;;22.03;100.00;98629.41;1740551;81;20163;-74
2021/05/17 07:47:17;;;;;;;;;;;;;;;22.04;100.00;98619.50;1729080;82;20177;-73
2021/05/17 07:49:51;;;;;;;;;;;;;;;22.13;100.00;98623.34;1727720;82;20159;-73
2021/05/17 07:52:12;;;;;;;;;;;;;;;22.24;100.00;98628.77;1747033;81;20209;-75
2021/05/17 07:54:38;;;;;;;;;;;;;;;22.32;100.00;98617.22;1751340;81;20179;-77
2021/05/17 07:57:05;;;;;;;;;;;;;;;22.45;100.00;98611.63;1741011;81;20231;-74
2021/05/17 07:59:32;;;;;;;;;;;;;;;22.65;100.00;98608.77;1743487;81;20519;-74
2021/05/17 08:02:00;;;;;;;;;;;;;;;22.86;100.00;98608.61;1741061;81;20160;-77
2021/05/17 08:04:27;;;;;;;;;;;;;;;23.07;100.00;98605.17;1754660;80;20202;-75
2021/05/17 08:06:53;;;;;;;;;;;;;;;23.40;100.00;98611.77;1776428;80;20491;-75
2021/05/17 08:09:22;;;;;;;;;;;;;;;23.78;100.00;98610.58;1790868;80;20179;-75
2021/05/17 08:11:49;;;;;;;;;;;;;;;24.17;100.00;98604.61;1788704;80;20135;-77
2021/05/17 08:14:17;;;;;;;;;;;;;;;24.57;100.00;98596.92;1769484;80;20268;-78
2021/05/17 08:16:44;;;;;;;;;;;;;;;24.89;100.00;98597.53;1731523;82;20173;-77
2021/05/17 08:19:11;;;;;;;;;;;;;;;24.94;100.00;98597.45;1780779;79;20179;-78
2021/05/17 08:21:38;;;;;;;;;;;;;;;25.16;100.00;98609.82;1787718;80;20600;-78
2021/05/17 08:24:05;;;;;;;;;;;;;;;25.20;100.00;98601.20;1767090;80;20153;-74
2021/05/17 08:26:33;;;;;;;;;;;;;;;25.12;100.00;98598.54;1767280;81;20169;-78
2021/05/17 08:29:00;;;;;;;;;;;;;;;25.06;100.00;98605.86;1767439;81;20202;-76
2021/05/17 08:31:27;;;;;;;;;;;;;;;24.92;100.00;98608.00;1745577;81;20563;-78
2021/05/17 08:33:53;;;;;;;;;;;;;;;24.82;100.00;98615.06;1766567;81;20505;-76
2021/05/17 08:36:20;;;;;;;;;;;;;;;24.93;100.00;98609.66;1767659;81;20293;-75
2021/05/17 08:38:46;;;;;;;;;;;;;;;25.39;100.00;98611.68;1767057;81;20161;-75
2021/05/17 08:41:14;;;;;;;;;;;;;;;25.85;100.00;98608.63;1767458;81;20496;-78
2021/05/17 08:43:41;;;;;;;;;;;;;;;26.28;100.00;98601.97;1767040;81;20185;-75
2021/05/17 08:46:09;;;;;;;;;;;;;;;26.69;100.00;98599.69;1767603;81;20161;-78
2021/05/17 08:48:46;;;;;;;;;;;;;;;27.05;100.00;98597.44;1765736;81;20149;-79
2021/05/17 08:51:07;;;;;;;;;;;;;;;27.34;100.00;98593.41;1767046;80;20177;-76
2021/05/17 08:53:34;;;;;;;;;;;;;;;27.57;100.00;98594.19;1770706;81;20166;-77
2021/05/17 08:56:04;;;;;;;;;;;;;;;27.79;100.00;98587.77;1769284;80;20205;-76
2021/05/17 08:58:30;;;;;;;;;;;;;;;27.94;100.00;98585.98;1767731;81;20231;-76
2021/05/17 09:01:00;;;;;;;;;;;;;;;27.82;100.00;98576.83;1767461;81;20169;-77
2021/05/17 09:03:27;;;;;;;;;;;;;;;27.99;100.00;98588.62;1767856;80;20176;-78
2021/05/17 09:05:54;;;;;;;;;;;;;;;28.21;100.00;98592.43;1772706;81;20192;-77
2021/05/17 09:08:25;;;;;;;;;;;;;;;28.27;100.00;98591.13;1772530;81;20176;-77
2021/05/17 09:10:52;;;;;;;;;;;;;;;28.41;100.00;98602.11;1772509;81;20141;-80
2021/05/17 09:13:19;;;;;;;;;;;;;;;28.33;100.00;98588.45;1742995;81;20157;-77
2021/05/17 09:15:47;;;;;;;;;;;;;;;28.12;100.00;98596.58;1772863;81;20161;-77
2021/05/17 09:18:19;;;;;;;;;;;;;;;28.07;100.00;98593.94;1772817;80;20157;-76
2021/05/17 09:20:46;;;;;;;;;;;;;;;28.17;100.00;98593.65;1744555;82;20179;-73
2021/05/17 09:23:20;;;;;;;;;;;;;;;28.28;100.00;98603.05;1746401;82;20156;-74
2021/05/17 09:26:08;;;;;;;;;;;;;;;28.24;100.00;98588.98;1744556;82;20659;-78
2021/05/17 09:28:37;;;;;;;;;;;;;;;27.93;100.00;98584.91;1743838;82;20216;-77
2021/05/17 09:31:15;;;;;;;;;;;;;;;27.83;100.00;98601.25;1743283;82;20182;-78
2021/05/17 09:33:57;;;;;;;;;;;;;;;27.96;100.00;98593.97;1743317;82;20184;-76
2021/05/17 09:36:41;;;;;;;;;;;;;;;28.21;100.00;98596.60;1714397;82;20534;-76
2021/05/17 09:39:10;;;;;;;;;;;;;;;28.58;100.00;98598.58;1742981;82;20582;-75
2021/05/17 09:41:39;;;;;;;;;;;;;;;28.84;100.00;98594.97;1743004;81;20254;-78
2021/05/17 09:44:06;;;;;;;;;;;;;;;28.82;100.00;98586.95;1706672;84;20204;-76
2021/05/17 09:46:59;;;;;;;;;;;;;;;28.82;100.00;98591.13;1706852;84;20205;-75
2021/05/17 09:49:38;;;;;;;;;;;;;;;28.75;100.00;98592.19;1683413;84;20231;-75
2021/05/17 09:52:13;;;;;;;;;;;;;;;28.84;100.00;98596.36;1707217;84;20193;-74
2021/05/17 09:55:00;;;;;;;;;;;;;;;29.10;100.00;98596.35;1707138;84;20209;-75
2021/05/17 09:57:36;;;;;;;;;;;;;;;29.24;100.00;98593.42;1699128;84;20239;-75
2021/05/17 10:00:18;;;;;;;;;;;;;;;29.07;100.00;98595.61;1706382;83;20166;-74
2021/05/17 10:02:48;;;;;;;;;;;;;;;29.04;100.00;98595.70;1707020;84;20193;-78
2021/05/17 10:05:20;;;;;;;;;;;;;;;29.09;100.00;98603.89;1707143;83;20193;-77
2021/05/17 10:07:49;;;;;;;;;;;;;;;29.24;100.00;98600.38;1707257;84;20145;-75
2021/05/17 10:10:17;;;;;;;;;;;;;;;29.09;100.00;98605.28;1677400;86;20176;-81
2021/05/17 10:12:45;;;;;;;;;;;;;;;28.73;100.00;98617.54;1676262;86;20215;-76
2021/05/17 10:15:13;;;;;;;;;;;;;;;28.39;100.00;98619.69;1677065;86;20235;-73
2021/05/17 10:17:41;;;;;;;;;;;;;;;27.99;100.00;98620.56;1677060;86;20184;-74
2021/05/17 10:20:09;;;;;;;;;;;;;;;27.65;100.00;98628.13;1681283;85;20187;-75
2021/05/17 10:22:36;;;;;;;;;;;;;;;27.39;100.00;98627.97;1682101;85;20528;-75
2021/05/17 10:25:06;;;;;;;;;;;;;;;27.09;100.00;98638.11;1682292;85;20199;-74
2021/05/17 10:27:39;;;;;;;;;;;;;;;26.87;100.00;98642.25;1682355;85;20175;-78
2021/05/17 10:30:08;;;;;;;;;;;;;;;26.76;100.00;98633.34;1682046;85;20199;-78
2021/05/17 10:32:44;;;;;;;;;;;;;;;26.63;100.00;98635.58;1682039;84;20504;-78
2021/05/17 10:35:14;;;;;;;;;;;;;;;26.47;100.00;98640.06;1682425;85;20207;-76
2021/05/17 10:37:43;;;;;;;;;;;;;;;26.40;100.00;98638.82;1682302;85;20200;-74
2021/05/17 10:40:15;;;;;;;;;;;;;;;26.25;100.00;98643.55;1686844;84;20177;-76
2021/05/17 10:42:52;;;;;;;;;;;;;;;26.03;100.00;98655.38;1705809;84;20213;-76
2021/05/17 10:48:21;;;;;;;;;;;;;;;25.47;100.00;98663.29;1683430;84;20186;-75
2021/05/17 10:51:10;;;;;;;;;;;;;;;25.19;100.00;98668.69;1683244;85;20181;-73
2021/05/17 10:56:45;;;;;;;;;;;;;;;24.94;100.00;98675.44;1638387;87;20482;-76
2021/05/17 11:02:03;;;;;;;;;;;;;;;24.94;100.00;98673.48;1641201;87;20274;-77
2021/05/17 11:29:29;;;;;;;;;;;;;;;26.77;100.00;98680.72;1666171;83;20164;-84
2021/05/17 11:32:13;;;;;;;;;;;;;;;27.09;100.00;98672.79;1668979;85;20201;-84
2021/05/17 11:35:04;;;;;;;;;;;;;;;26.97;100.00;98673.06;1668757;86;20177;-82
2021/05/17 11:37:34;;;;;;;;;;;;;;;26.93;100.00;98673.45;1672694;86;20168;-85
2021/05/17 11:40:04;;;;;;;;;;;;;;;27.16;100.00;98680.69;1672782;86;20172;-83
2021/05/17 11:42:30;;;;;;;;;;;;;;;27.34;100.00;98671.11;1672376;85;20503;-85
2021/05/17 11:45:10;;;;;;;;;;;;;;;27.44;100.00;98675.02;1672779;85;20163;-81
2021/05/17 11:47:30;;;;;;;;;;;;;;;27.62;100.00;98676.79;1649750;86;20549;-84
2021/05/17 11:49:57;;;;;;;;;;;;;;;27.57;100.00;98674.14;1650373;87;20177;-82
2021/05/17 11:52:25;;;;;;;;;;;;;;;27.37;100.00;98679.62;1649802;87;20214;-83
2021/05/17 11:54:59;;;;;;;;;;;;;;;26.97;100.00;98678.61;1650944;87;20187;-80
2021/05/17 11:57:31;;;;;;;;;;;;;;;26.59;100.00;98682.47;1653835;87;20191;-84
2021/05/17 12:00:08;;;;;;;;;;;;;;;26.33;100.00;98692.72;1652385;87;20158;-86
2021/05/17 12:02:50;;;;;;;;;;;;;;;26.12;100.00;98701.18;1636330;88;20178;-84
2021/05/17 12:05:17;;;;;;;;;;;;;;;26.02;100.00;98706.91;1618099;89;20192;-82
2021/05/17 12:07:50;;;;;;;;;;;;;;;26.03;100.00;98717.69;1618522;89;20228;-85
2021/05/17 12:10:17;;;;;;;;;;;;;;;25.96;100.00;98722.80;1627201;88;20233;-84
2021/05/17 12:12:45;;;;;;;;;;;;;;;25.99;100.00;98727.70;1596306;90;20159;-84
2021/05/17 12:15:17;;;;;;;;;;;;;;;26.05;100.00;98730.66;1595736;90;20171;-83
2021/05/17 12:17:45;;;;;;;;;;;;;;;25.99;100.00;98733.25;1579771;90;20233;-81
2021/05/17 12:20:14;;;;;;;;;;;;;;;26.12;100.00;98735.80;1579945;91;20167;-83
2021/05/17 12:22:44;;;;;;;;;;;;;;;26.21;100.00;98733.15;1579556;91;20169;-82
2021/05/17 12:25:13;;;;;;;;;;;;;;;26.44;100.00;98732.70;1594177;90;20186;-77
2021/05/17 12:27:42;;;;;;;;;;;;;;;26.48;100.00;98735.91;1600235;90;20198;-83
2021/05/17 12:30:14;;;;;;;;;;;;;;;26.39;100.00;98745.27;1610248;88;20190;-80
2021/05/17 12:32:44;;;;;;;;;;;;;;;26.20;100.00;98746.16;1600814;90;20158;-81
2021/05/17 12:35:16;;;;;;;;;;;;;;;26.09;100.00;98751.06;1610675;89;20201;-81
2021/05/17 12:38:03;;;;;;;;;;;;;;;25.82;100.00;98750.42;1610619;89;20183;-79
2021/05/17 12:43:16;;;;;;;;;;;;;;;25.35;100.00;98751.72;1533608;94;20179;-76
2021/05/17 12:45:45;;;;;;;;;;;;;;;25.29;100.00;98759.84;1517980;94;20244;-76
2021/05/17 12:48:22;;;;;;;;;;;;;;;25.53;100.00;98756.99;1546743;93;20220;-76
2021/05/17 12:50:56;;;;;;;;;;;;;;;25.69;100.00;98754.80;1530860;93;20168;-78
2021/05/17 12:53:28;;;;;;;;;;;;;;;25.77;100.00;98751.89;1542867;93;20589;-75
2021/05/17 12:55:59;;;;;;;;;;;;;;;25.90;100.00;98766.31;1528674;94;20258;-74
2021/05/17 12:58:34;;;;;;;;;;;;;;;26.16;100.00;98769.25;1528321;94;20173;-79
2021/05/17 13:01:10;;;;;;;;;;;;;;;26.35;100.00;98772.77;1529055;93;20190;-82
2021/05/17 13:03:41;;;;;;;;;;;;;;;26.47;100.00;98776.40;1533205;93;20239;-80
2021/05/17 13:06:29;;;;;;;;;;;;;;;26.57;100.00;98774.00;1532819;93;20165;-79
2021/05/17 13:09:02;;;;;;;;;;;;;;;26.47;100.00;98773.63;1556769;91;20207;-83
2021/05/17 13:11:35;;;;;;;;;;;;;;;26.24;100.00;98775.45;1579772;91;20193;-81
2021/05/17 13:14:06;;;;;;;;;;;;;;;26.23;100.00;98769.67;1593961;88;20152;-82
2021/05/17 13:16:35;;;;;;;;;;;;;;;26.20;100.00;98764.16;1606685;88;20358;-81
2021/05/17 13:21:57;;;;;;;;;;;;;;;25.95;100.00;98766.27;1550766;93;20144;-78
2021/05/17 13:30:02;;;;;;;;;;;;;;;25.11;100.00;98764.80;1562704;90;20563;-81
2021/05/17 13:32:27;;;;;;;;;;;;;;;24.85;100.00;98793.34;1537777;92;20176;-81
2021/05/17 13:34:54;;;;;;;;;;;;;;;24.71;100.00;98798.75;1530739;93;20196;-78
2021/05/17 13:37:21;;;;;;;;;;;;;;;24.70;100.00;98802.09;1536162;93;20175;-80
2021/05/17 13:39:49;;;;;;;;;;;;;;;24.61;100.00;98805.20;1517216;94;20525;-77
2021/05/17 13:42:16;;;;;;;;;;;;;;;24.60;100.00;98778.14;1519611;94;20237;-82
2021/05/17 13:44:43;;;;;;;;;;;;;;;24.75;100.00;98790.94;1511712;94;20182;-81
2021/05/17 13:47:10;;;;;;;;;;;;;;;24.95;100.00;98807.85;1524871;93;20229;-78
2021/05/17 13:49:38;;;;;;;;;;;;;;;24.98;100.00;98814.18;1532150;92;20208;-82
2021/05/17 13:52:05;;;;;;;;;;;;;;;24.96;100.00;98806.72;1556293;90;20125;-76
2021/05/17 13:54:34;;;;;;;;;;;;;;;25.09;100.00;98801.05;1591308;90;20185;-79
2021/05/17 13:57:01;;;;;;;;;;;;;;;25.27;100.00;98798.05;1581085;91;20245;-81
2021/05/17 13:59:30;;;;;;;;;;;;;;;25.30;100.00;98805.77;1580998;91;20241;-80
2021/05/17 14:01:59;;;;;;;;;;;;;;;25.12;100.00;98796.84;1581982;91;20181;-79